Robinson, IL

5:59 AM CDT on August 17, 2017 (GMT -0500)
Robinson Municipal

Weather History for KRSV - October, 2012

Change the Weather History Date:

Sunday, October 21, 2012

  Actual Average (KLWV) Record (KLWV)
Temperature  
Mean Temperature 58 °F -  
Max Temperature 75 °F 64 °F 82 °F (2007)
Min Temperature 40 °F 42 °F 30 °F (1991)
Degree Days  
Heating Degree Days 8    
Growing Degree Days 8 (Base 50)    
Moisture  
Dew Point 50 °F    
Average Humidity 76    
Maximum Humidity 100    
Minimum Humidity 44    
Precipitation  
Precipitation 0.00 in - - ()
Sea Level Pressure  
Sea Level Pressure 30.02 in    
Wind  
Wind Speed 4 mph (SE)    
Max Wind Speed 14 mph    
Max Gust Speed 18 mph    
Visibility 8 miles    
Events      
Averages and records for this station are not official NWS values.
T = Trace of Precipitation, MM = Missing Value Source: NWS Daily Summary

Daily Weather History Graph

Daily Weather History Graph

Search for Another Location

Airport or City:

Trip Planner

Search our weather history database for the weather conditions in past years. The results will help you decide how hot, cold, wet, or windy it might be!

Date:

Astronomy

Oct. 21, 2012 Rise Set
Actual Time 7:06 AM CDT 6:02 PM CDT
Civil Twilight 6:39 AM CDT 6:30 PM CDT
Nautical Twilight 6:08 AM CDT 7:01 PM CDT
Astronomical Twilight 5:37 AM CDT 7:32 PM CDT
Moon 1:26 PM CDT (10/21) 11:57 PM CDT (10/21)
Length of Visible Light 11h 50m
Length of Day
10h 56m
Waxing Crescent, 45% of the Moon is Illuminated
Oct 21
Waxing Crescent
Oct 21
First Quarter
Oct 29
Full
Nov 6
Last Quarter
Nov 13
New

Hourly Weather History & Observations

Time (CDT) Temp. Windchill Dew Point Humidity Pressure Visibility Wind Dir Wind Speed Gust Speed Precip Events Conditions
12:15 AM 45.0 °F - 45.0 °F 100% 29.99 in 10.0 mi Calm Calm - N/A   Clear
12:35 AM 45.7 °F - 45.7 °F 100% 29.99 in 7.0 mi Calm Calm - N/A   Clear
12:55 AM 45.5 °F - 45.5 °F 100% 30.00 in 7.0 mi Calm Calm - N/A   Clear
1:15 AM 45.7 °F - 45.7 °F 100% 30.00 in 7.0 mi Calm Calm - N/A   Clear
1:35 AM 43.5 °F - 43.5 °F 100% 30.01 in 4.0 mi Calm Calm - N/A   Clear
1:55 AM 43.3 °F - 43.3 °F 100% 30.01 in 2.0 mi Calm Calm - N/A   Clear
2:15 AM 42.3 °F - 42.3 °F 100% 30.01 in 1.0 mi Calm Calm - N/A   Mist
2:35 AM 42.4 °F - 42.4 °F 100% 30.02 in 1.0 mi Calm Calm - N/A   Mist
2:55 AM 41.5 °F - 41.5 °F 100% 30.03 in 1.0 mi Calm Calm - N/A   Mist
3:15 AM 40.6 °F - 40.6 °F 100% 30.03 in 0.8 mi Calm Calm - N/A   Mist
3:55 AM 40.5 °F - 40.5 °F 100% 30.03 in 0.8 mi Calm Calm - N/A   Mist
4:15 AM 41.5 °F - 41.5 °F 100% 30.03 in 1.0 mi Calm Calm - N/A   Mist
4:35 AM 42.1 °F 39.2 °F 42.1 °F 100% 30.03 in 4.0 mi East 4.6 mph - N/A   Clear
4:55 AM 43.9 °F 42.3 °F 43.9 °F 100% 30.03 in 7.0 mi ESE 3.5 mph - N/A   Clear
5:15 AM 43.2 °F - 43.2 °F 100% 30.03 in 7.0 mi Calm Calm - N/A   Clear
5:35 AM 44.4 °F - 44.4 °F 100% 30.03 in 7.0 mi Calm Calm - N/A   Clear
5:55 AM 43.9 °F 41.3 °F 43.9 °F 100% 30.03 in 7.0 mi ESE 4.6 mph - N/A   Clear
6:15 AM 45.0 °F 41.8 °F 45.0 °F 100% 30.04 in 7.0 mi ESE 5.8 mph - N/A   Clear
6:35 AM 45.5 °F 42.5 °F 45.5 °F 100% 30.03 in 7.0 mi ESE 5.8 mph - N/A   Clear
6:55 AM 45.5 °F 43.2 °F 45.5 °F 100% 30.04 in 5.0 mi SE 4.6 mph - N/A   Clear
7:15 AM 44.6 °F 43.1 °F 44.6 °F 100% 30.04 in 5.0 mi ESE 3.5 mph - N/A   Clear
7:35 AM 45.7 °F 44.4 °F 45.7 °F 100% 30.04 in 5.0 mi SE 3.5 mph - N/A   Clear
7:55 AM 47.7 °F - 47.7 °F 100% 30.04 in 7.0 mi ESE 5.8 mph - N/A   Clear
8:15 AM 50.0 °F - 49.1 °F 97% 30.05 in 10.0 mi ESE 8.1 mph - N/A   Clear
8:35 AM 51.6 °F - 49.5 °F 92% 30.06 in 10.0 mi ESE 8.1 mph - N/A   Clear
8:55 AM 53.1 °F - 50.2 °F 90% 30.06 in 10.0 mi ESE 9.2 mph - N/A   Clear
9:15 AM 54.9 °F - 50.7 °F 86% 30.06 in 10.0 mi ESE 10.4 mph - N/A   Clear
9:55 AM 58.8 °F - 51.8 °F 77% 30.06 in 10.0 mi ESE 8.1 mph - N/A   Clear
10:15 AM 60.6 °F - 50.2 °F 68% 30.06 in 10.0 mi ESE 10.4 mph - N/A   Clear
11:15 AM 66.4 °F - 51.1 °F 58% 30.05 in 10.0 mi SE 11.5 mph - N/A   Clear
11:55 AM 68.9 °F - 49.8 °F 51% 30.04 in 10.0 mi SE 13.8 mph - N/A   Clear
12:15 PM 70.0 °F - 50.5 °F 50% 30.03 in 10.0 mi SSE 12.7 mph - N/A   Clear
12:35 PM 71.4 °F - 51.6 °F 50% 30.03 in 10.0 mi SE 13.8 mph 17.3 mph N/A   Clear
12:55 PM 71.8 °F - 50.4 °F 47% 30.02 in 10.0 mi SSE 12.7 mph 18.4 mph N/A   Clear
1:15 PM 72.9 °F - 51.3 °F 47% 30.01 in 10.0 mi SE 12.7 mph - N/A   Clear
1:35 PM 73.0 °F - 51.1 °F 46% 30.01 in 10.0 mi SE 9.2 mph - N/A   Clear
1:55 PM 73.6 °F - 51.6 °F 46% 30.01 in 10.0 mi SE 11.5 mph 16.1 mph N/A   Clear
2:15 PM 74.1 °F - 51.4 °F 45% 30.00 in 10.0 mi SSE 12.7 mph - N/A   Clear
2:35 PM 74.5 °F - 51.6 °F 45% 29.99 in 10.0 mi SE 12.7 mph - N/A   Clear
2:55 PM 75.2 °F - 51.8 °F 44% 29.99 in 10.0 mi SSE 12.7 mph - N/A   Clear
3:35 PM 75.4 °F - 52.3 °F 44% 29.99 in 10.0 mi SSE 12.7 mph 16.1 mph N/A   Clear
3:55 PM 75.2 °F - 52.3 °F 45% 29.98 in 10.0 mi SSE 11.5 mph - N/A   Clear
4:15 PM 75.0 °F - 52.5 °F 45% 29.98 in 10.0 mi SE 11.5 mph - N/A   Clear
4:35 PM 74.5 °F - 53.1 °F 47% 29.98 in 10.0 mi SE 11.5 mph - N/A   Clear
4:55 PM 73.9 °F - 53.6 °F 49% 29.99 in 10.0 mi SE 8.1 mph - N/A   Clear
5:55 PM 68.2 °F - 55.0 °F 63% 30.00 in 10.0 mi ESE 4.6 mph - N/A   Clear
6:15 PM 67.5 °F - 54.7 °F 64% 30.00 in 10.0 mi ESE 5.8 mph - N/A   Clear
6:35 PM 65.3 °F - 55.8 °F 71% 30.00 in 10.0 mi ESE 6.9 mph - N/A   Scattered Clouds
6:55 PM 67.1 °F - 56.7 °F 69% 30.01 in 10.0 mi East 5.8 mph - N/A   Overcast
7:15 PM 67.5 °F - 56.3 °F 67% 30.01 in 10.0 mi East 4.6 mph - N/A   Overcast
7:35 PM 68.0 °F - 56.3 °F 66% 30.01 in 10.0 mi East 3.5 mph - N/A   Overcast
7:55 PM 67.3 °F - 57.2 °F 70% 30.01 in 10.0 mi East 4.6 mph - N/A   Overcast
8:35 PM 67.3 °F - 55.6 °F 66% 30.02 in 10.0 mi SE 4.6 mph - N/A   Overcast
8:55 PM 67.1 °F - 56.3 °F 68% 30.02 in 10.0 mi SE 6.9 mph - N/A   Overcast
9:35 PM 66.6 °F - 56.8 °F 71% 30.03 in 10.0 mi ESE 5.8 mph - N/A   Overcast
9:55 PM 67.5 °F - 56.5 °F 68% 30.03 in 10.0 mi ESE 5.8 mph - N/A   Overcast
10:15 PM 66.4 °F - 57.2 °F 72% 30.03 in 10.0 mi ESE 5.8 mph - N/A   Overcast
10:35 PM 67.5 °F - 56.1 °F 67% 30.03 in 10.0 mi ESE 8.1 mph - N/A   Overcast
11:15 PM 67.6 °F - 55.8 °F 66% 30.03 in 10.0 mi ESE 8.1 mph - N/A   Overcast
11:35 PM 67.5 °F - 55.8 °F 66% 30.03 in 10.0 mi ESE 6.9 mph - N/A   Overcast
11:55 PM 67.8 °F - 55.6 °F 65% 30.03 in 10.0 mi SE 6.9 mph - N/A   Overcast